Time;durP1;ratioP1;P1;durP2;ratioP2;P2;SDS_P1;SDS_P2;PMS_P1;PMS_P2;Temp;Humidity;BMP_temperature;BMP_pressure;BME280_temperature;BME280_humidity;BME280_pressure;Samples;Min_cycle;Max_cycle;Signal;HPM_P1;HPM_P2
2021/06/14 00:02:14;;;;;;;10.13;6.10;;;10.50;99.90;;;;;;5108750;28;20211;-59
2021/06/14 00:04:41;;;;;;;7.05;5.80;;;10.60;99.90;;;;;;5104865;28;20467;-59
2021/06/14 00:07:08;;;;;;;6.32;5.45;;;10.60;99.90;;;;;;5100443;28;20283;-59
2021/06/14 00:09:35;;;;;;;8.27;5.80;;;10.50;99.90;;;;;;5114930;28;20212;-58
2021/06/14 00:12:03;;;;;;;10.20;5.57;;;10.40;99.90;;;;;;5113228;28;20275;-59
2021/06/14 00:14:31;;;;;;;6.55;5.00;;;10.40;99.90;;;;;;5110922;28;20225;-59
2021/06/14 00:16:58;;;;;;;8.45;5.05;;;10.40;99.90;;;;;;5115495;28;20242;-59
2021/06/14 00:19:25;;;;;;;13.90;6.47;;;10.20;99.90;;;;;;5114192;28;20199;-58
2021/06/14 00:21:53;;;;;;;11.00;6.30;;;10.20;99.90;;;;;;5114404;28;20351;-59
2021/06/14 00:24:20;;;;;;;7.30;6.70;;;10.30;99.90;;;;;;5102454;28;20283;-58
2021/06/14 00:26:47;;;;;;;7.97;6.53;;;10.30;99.90;;;;;;5099751;28;20215;-59
2021/06/14 00:29:14;;;;;;;8.90;6.20;;;10.20;99.90;;;;;;5101169;28;20203;-58
2021/06/14 00:31:41;;;;;;;6.85;5.60;;;10.10;99.90;;;;;;5108993;28;20213;-61
2021/06/14 00:34:09;;;;;;;8.32;5.10;;;10.20;99.90;;;;;;5106098;28;20240;-59
2021/06/14 00:36:36;;;;;;;13.27;7.22;;;10.20;99.90;;;;;;5110300;28;20269;-59
2021/06/14 00:39:03;;;;;;;10.60;6.88;;;11.10;99.90;;;;;;5114124;28;20534;-59
2021/06/14 00:41:30;;;;;;;9.77;6.60;;;10.30;99.90;;;;;;5109871;28;20282;-59
2021/06/14 00:43:57;;;;;;;11.52;7.47;;;10.30;99.90;;;;;;5114064;28;20213;-59
2021/06/14 00:46:24;;;;;;;8.20;6.07;;;10.30;99.90;;;;;;5115717;28;20248;-59
2021/06/14 00:48:51;;;;;;;7.80;5.85;;;10.30;99.90;;;;;;5115231;28;20508;-58
2021/06/14 00:51:20;;;;;;;7.45;6.45;;;10.20;99.90;;;;;;5115111;28;20213;-60
2021/06/14 00:53:55;;;;;;;9.57;6.50;;;10.10;99.90;;;;;;5116328;28;20302;-59
2021/06/14 00:56:24;;;;;;;12.50;7.32;;;10.10;99.90;;;;;;5116024;28;20426;-59
2021/06/14 00:58:51;;;;;;;6.90;5.18;;;10.20;99.90;;;;;;5114284;28;20211;-59
2021/06/14 01:01:18;;;;;;;10.80;7.07;;;10.20;99.90;;;;;;5115400;28;20207;-58
2021/06/14 01:03:46;;;;;;;10.10;6.95;;;10.20;99.90;;;;;;5116501;28;20470;-59
2021/06/14 01:06:15;;;;;;;6.80;4.82;;;10.20;99.90;;;;;;5102865;28;20630;-59
2021/06/14 01:08:46;;;;;;;10.15;6.15;;;10.20;99.90;;;;;;5115507;28;20244;-59
2021/06/14 01:11:43;;;;;;;8.23;6.75;;;10.10;99.90;;;;;;5102114;28;20426;-59
2021/06/14 01:14:28;;;;;;;8.48;5.35;;;10.00;99.90;;;;;;5113469;28;20205;-59
2021/06/14 01:17:04;;;;;;;10.45;7.50;;;10.00;99.90;;;;;;5119539;28;20207;-59
2021/06/14 01:19:50;;;;;;;8.98;6.40;;;10.00;99.90;;;;;;5114284;27;20279;-58
2021/06/14 01:22:39;;;;;;;18.75;7.13;;;10.00;99.90;;;;;;5100425;28;20203;-58
2021/06/14 01:25:25;;;;;;;9.98;6.30;;;10.00;99.90;;;;;;5102624;28;20209;-59
2021/06/14 01:27:56;;;;;;;24.15;10.85;;;10.00;99.90;;;;;;5120617;28;20387;-59
2021/06/14 01:30:29;;;;;;;9.10;7.07;;;9.90;99.90;;;;;;5105716;27;20205;-59
2021/06/14 01:32:57;;;;;;;12.73;6.63;;;9.70;99.90;;;;;;5116026;28;20293;-59
2021/06/14 01:35:40;;;;;;;7.13;5.78;;;9.70;99.90;;;;;;5120050;28;20247;-59
2021/06/14 01:38:09;;;;;;;9.50;6.95;;;9.70;99.90;;;;;;5116709;28;20197;-60
2021/06/14 01:40:39;;;;;;;10.80;7.45;;;9.70;99.90;;;;;;5103865;28;20206;-59
2021/06/14 01:43:09;;;;;;;15.35;8.77;;;9.70;99.90;;;;;;5103912;28;20210;-59
2021/06/14 01:45:46;;;;;;;10.65;8.13;;;9.70;99.90;;;;;;5116020;28;20228;-59
2021/06/14 01:48:15;;;;;;;10.70;7.10;;;9.70;99.90;;;;;;5099330;28;20273;-59
2021/06/14 01:50:42;;;;;;;10.55;6.13;;;9.60;99.90;;;;;;5120078;28;20445;-59
2021/06/14 01:53:10;;;;;;;15.68;7.93;;;9.60;99.90;;;;;;5106104;28;20299;-59
2021/06/14 01:55:38;;;;;;;14.73;9.07;;;9.50;99.90;;;;;;5112955;28;20341;-59
2021/06/14 01:58:06;;;;;;;9.15;7.53;;;9.60;99.90;;;;;;5110947;28;20266;-59
2021/06/14 02:00:37;;;;;;;11.23;8.13;;;9.50;99.90;;;;;;5103650;28;20207;-59
2021/06/14 02:03:06;;;;;;;11.95;7.30;;;9.60;99.90;;;;;;5116887;28;20408;-60
2021/06/14 02:05:35;;;;;;;14.55;8.80;;;9.60;99.90;;;;;;5116395;28;20264;-60
2021/06/14 02:08:02;;;;;;;9.70;8.10;;;9.70;99.90;;;;;;5110141;28;20240;-59
2021/06/14 02:10:30;;;;;;;9.40;7.80;;;9.70;99.90;;;;;;5103585;28;20422;-59
2021/06/14 02:12:59;;;;;;;12.90;8.25;;;9.80;99.90;;;;;;5112248;28;20222;-59
2021/06/14 02:15:26;;;;;;;11.25;8.38;;;9.10;99.90;;;;;;5099673;28;20218;-59
2021/06/14 02:17:56;;;;;;;10.00;8.95;;;9.70;99.90;;;;;;5117410;28;20205;-59
2021/06/14 02:20:24;;;;;;;14.38;8.98;;;9.60;99.90;;;;;;5119542;28;20248;-59
2021/06/14 02:22:52;;;;;;;13.48;9.13;;;9.60;99.90;;;;;;5116373;28;20205;-59
2021/06/14 02:25:19;;;;;;;12.50;8.40;;;9.60;99.90;;;;;;5116042;28;20197;-59
2021/06/14 02:27:46;;;;;;;11.50;9.00;;;9.70;99.90;;;;;;5105796;28;20202;-59
2021/06/14 02:30:23;;;;;;;13.25;9.75;;;9.80;99.90;;;;;;5108572;28;20346;-60
2021/06/14 02:32:51;;;;;;;13.20;9.15;;;9.70;99.90;;;;;;5106648;27;20209;-59
2021/06/14 02:35:20;;;;;;;10.77;8.63;;;9.80;99.90;;;;;;5119452;28;20243;-59
2021/06/14 02:37:52;;;;;;;16.67;8.38;;;9.80;99.90;;;;;;5119243;28;20201;-59
2021/06/14 02:40:25;;;;;;;13.65;8.82;;;9.60;99.90;;;;;;5117479;28;20213;-58
2021/06/14 02:42:53;;;;;;;12.85;9.45;;;9.70;99.90;;;;;;5119586;28;20422;-59
2021/06/14 02:45:24;;;;;;;11.40;10.23;;;9.70;99.90;;;;;;5117694;28;20205;-58
2021/06/14 02:47:53;;;;;;;10.13;8.95;;;9.80;99.90;;;;;;5118436;27;20494;-59
2021/06/14 02:50:20;;;;;;;17.38;10.40;;;9.90;99.90;;;;;;5101315;28;20259;-58
2021/06/14 02:52:50;;;;;;;17.00;11.43;;;10.00;99.90;;;;;;5111331;28;20260;-58
2021/06/14 02:55:22;;;;;;;19.13;10.52;;;10.10;99.90;;;;;;5105678;28;20208;-59
2021/06/14 02:57:55;;;;;;;14.43;9.40;;;10.20;99.90;;;;;;5118662;28;20206;-59
2021/06/14 03:00:31;;;;;;;12.27;9.32;;;10.50;99.90;;;;;;5101417;28;20589;-59
2021/06/14 03:03:04;;;;;;;10.85;8.20;;;10.50;99.90;;;;;;5100324;28;20245;-60
2021/06/14 03:05:33;;;;;;;14.88;9.55;;;10.70;99.90;;;;;;5116802;28;20252;-58
2021/06/14 03:08:02;;;;;;;16.23;9.80;;;10.70;99.90;;;;;;5118454;28;20218;-60
2021/06/14 03:10:31;;;;;;;21.23;10.30;;;10.90;99.90;;;;;;5114094;28;20274;-59
2021/06/14 03:13:01;;;;;;;16.35;11.48;;;10.90;99.90;;;;;;5098388;28;20230;-58
2021/06/14 03:15:30;;;;;;;13.00;9.75;;;11.10;99.90;;;;;;5114511;28;20226;-59
2021/06/14 03:17:59;;;;;;;11.30;10.13;;;11.20;99.90;;;;;;5118513;28;20276;-59
2021/06/14 03:20:27;;;;;;;11.45;9.90;;;11.30;99.90;;;;;;5115971;28;20249;-59
2021/06/14 03:22:54;;;;;;;13.23;9.75;;;11.50;99.90;;;;;;5098890;28;20207;-59
2021/06/14 03:25:22;;;;;;;13.80;8.65;;;11.60;99.90;;;;;;5112281;28;20211;-60
2021/06/14 03:27:50;;;;;;;10.10;6.60;;;11.50;99.90;;;;;;5098163;28;20374;-59
2021/06/14 03:30:22;;;;;;;9.30;8.00;;;11.60;99.90;;;;;;5111636;28;20207;-60
2021/06/14 03:32:50;;;;;;;9.52;8.23;;;11.70;99.90;;;;;;5103003;28;20387;-59
2021/06/14 03:35:19;;;;;;;15.88;8.15;;;11.90;99.90;;;;;;5109489;28;20229;-59
2021/06/14 03:37:47;;;;;;;10.77;7.43;;;11.80;99.90;;;;;;5113619;28;20204;-59
2021/06/14 03:40:17;;;;;;;15.18;6.65;;;11.90;99.90;;;;;;5111393;28;20202;-58
2021/06/14 03:42:44;;;;;;;10.85;7.30;;;12.20;99.90;;;;;;5106644;28;20219;-59
2021/06/14 03:45:12;;;;;;;13.52;8.35;;;12.20;99.90;;;;;;5113669;28;20255;-58
2021/06/14 03:47:39;;;;;;;11.82;6.88;;;12.40;99.90;;;;;;5114156;28;20204;-59
2021/06/14 03:50:08;;;;;;;12.30;8.18;;;12.60;99.90;;;;;;5098146;28;20429;-59
2021/06/14 03:52:40;;;;;;;8.68;7.80;;;12.50;99.90;;;;;;5107626;28;20208;-58
2021/06/14 03:55:09;;;;;;;9.15;6.55;;;12.20;99.90;;;;;;5102635;28;20267;-59
2021/06/14 03:57:37;;;;;;;8.27;6.70;;;12.50;99.90;;;;;;5117295;28;20208;-59
2021/06/14 04:00:06;;;;;;;8.75;6.80;;;12.70;99.90;;;;;;5116470;28;20239;-59
2021/06/14 04:02:33;;;;;;;13.45;7.93;;;12.70;99.90;;;;;;5117517;28;20312;-58
2021/06/14 04:05:01;;;;;;;6.88;5.85;;;13.10;99.90;;;;;;5100907;28;20212;-59
2021/06/14 04:07:28;;;;;;;8.95;5.57;;;13.40;99.90;;;;;;5097030;28;20257;-60
2021/06/14 04:09:59;;;;;;;8.45;6.00;;;13.50;99.90;;;;;;5097393;28;20207;-60
2021/06/14 04:12:30;;;;;;;7.15;5.88;;;13.50;99.90;;;;;;5102560;28;20208;-58
2021/06/14 04:14:58;;;;;;;9.32;6.00;;;13.60;99.90;;;;;;5117560;28;20228;-59
2021/06/14 04:17:28;;;;;;;6.78;5.80;;;13.60;99.90;;;;;;5116320;28;20208;-59
2021/06/14 04:19:56;;;;;;;11.00;6.97;;;13.60;99.90;;;;;;5117553;28;20321;-60
2021/06/14 04:22:23;;;;;;;7.35;5.78;;;13.50;99.90;;;;;;5116488;28;20248;-59
2021/06/14 04:24:50;;;;;;;7.93;6.40;;;13.50;99.90;;;;;;5114782;28;20210;-59
2021/06/14 04:27:17;;;;;;;8.77;7.30;;;13.90;99.90;;;;;;5117182;28;20197;-60
2021/06/14 04:29:45;;;;;;;8.18;6.13;;;14.00;99.90;;;;;;5116872;28;20242;-59
2021/06/14 04:32:12;;;;;;;10.63;6.03;;;14.00;99.90;;;;;;5108202;28;20286;-59
2021/06/14 04:34:39;;;;;;;9.55;7.28;;;14.30;99.90;;;;;;5115363;28;20274;-59
2021/06/14 04:37:06;;;;;;;7.00;5.38;;;14.40;99.90;;;;;;5110212;28;20198;-58
2021/06/14 04:39:34;;;;;;;7.68;4.93;;;14.70;99.90;;;;;;5108776;28;20411;-59
2021/06/14 04:42:01;;;;;;;5.47;4.88;;;15.10;99.90;;;;;;5116536;28;20209;-60
2021/06/14 04:44:28;;;;;;;8.10;5.40;;;15.70;99.90;;;;;;5116758;28;20329;-59
2021/06/14 04:46:55;;;;;;;8.43;6.22;;;15.70;99.90;;;;;;5109500;28;20214;-60
2021/06/14 04:49:23;;;;;;;8.57;5.75;;;15.90;99.90;;;;;;5108074;28;20454;-60
2021/06/14 04:51:50;;;;;;;9.65;6.30;;;15.90;99.90;;;;;;5103224;28;20263;-59
2021/06/14 04:54:17;;;;;;;5.97;4.85;;;16.00;99.90;;;;;;5117111;28;20230;-59
2021/06/14 04:56:44;;;;;;;11.73;6.95;;;16.10;99.90;;;;;;5099641;28;20510;-59
2021/06/14 04:59:11;;;;;;;10.65;6.00;;;16.30;99.90;;;;;;5116800;28;20697;-59
2021/06/14 05:01:38;;;;;;;8.07;6.72;;;16.40;99.90;;;;;;5103476;28;20502;-59
2021/06/14 05:04:05;;;;;;;8.18;5.28;;;16.30;99.90;;;;;;5102903;28;20269;-59
2021/06/14 05:06:32;;;;;;;6.78;5.10;;;16.40;99.90;;;;;;5103638;28;20521;-59
2021/06/14 05:08:59;;;;;;;5.38;4.57;;;16.30;99.90;;;;;;5115534;28;20207;-59
2021/06/14 05:11:26;;;;;;;11.37;6.03;;;16.40;99.90;;;;;;5115328;28;20209;-59
2021/06/14 05:13:53;;;;;;;6.27;4.60;;;16.50;99.90;;;;;;5099426;28;20507;-60
2021/06/14 05:16:20;;;;;;;5.87;3.90;;;16.90;99.90;;;;;;5097438;28;20470;-59
2021/06/14 05:18:47;;;;;;;8.10;4.50;;;17.10;99.90;;;;;;5110896;28;20448;-59
2021/06/14 05:21:14;;;;;;;4.67;4.27;;;17.50;99.90;;;;;;5109429;28;20779;-60
2021/06/14 05:23:41;;;;;;;6.63;5.83;;;17.60;99.90;;;;;;5110141;28;20422;-60
2021/06/14 05:26:09;;;;;;;6.30;4.70;;;17.70;99.90;;;;;;5105921;28;20449;-60
2021/06/14 05:28:36;;;;;;;7.10;4.90;;;17.60;99.90;;;;;;5115616;28;20950;-60
2021/06/14 05:31:04;;;;;;;4.93;4.53;;;17.50;99.90;;;;;;5112275;28;20432;-60
2021/06/14 05:33:31;;;;;;;4.90;4.40;;;17.40;99.90;;;;;;5101772;28;20503;-61
2021/06/14 05:35:58;;;;;;;7.63;4.37;;;17.30;99.90;;;;;;5114424;28;20415;-59
2021/06/14 05:38:25;;;;;;;5.17;4.60;;;17.40;99.90;;;;;;5114692;28;20445;-60
2021/06/14 05:40:52;;;;;;;10.53;5.30;;;17.30;99.90;;;;;;5109429;28;20453;-60
2021/06/14 05:43:19;;;;;;;9.30;5.20;;;17.20;99.90;;;;;;5113504;28;20790;-59
2021/06/14 05:45:47;;;;;;;6.50;4.93;;;17.40;99.90;;;;;;5110030;28;20451;-59
2021/06/14 05:48:14;;;;;;;5.20;4.70;;;17.50;99.90;;;;;;5110946;28;20436;-60
2021/06/14 05:50:41;;;;;;;5.97;4.77;;;17.70;99.90;;;;;;5095754;28;20423;-59
2021/06/14 05:53:09;;;;;;;6.90;5.40;;;17.50;99.90;;;;;;5096113;28;20426;-60
2021/06/14 05:55:36;;;;;;;7.13;4.80;;;17.20;99.90;;;;;;5107979;28;20610;-60
2021/06/14 05:58:03;;;;;;;9.10;6.13;;;17.00;99.90;;;;;;5095878;28;20426;-59
2021/06/14 06:00:31;;;;;;;7.70;5.40;;;17.10;99.90;;;;;;5102616;28;20500;-60
2021/06/14 06:02:59;;;;;;;6.10;5.33;;;17.40;99.90;;;;;;5103631;28;20423;-61
2021/06/14 06:05:26;;;;;;;6.60;5.33;;;17.60;99.90;;;;;;5108287;28;20490;-60
2021/06/14 06:07:53;;;;;;;6.07;5.07;;;17.80;99.90;;;;;;5105846;28;20439;-60
2021/06/14 06:10:20;;;;;;;6.83;6.27;;;18.20;99.40;;;;;;5108189;28;20436;-60
2021/06/14 06:12:47;;;;;;;11.63;7.57;;;18.50;98.30;;;;;;5100554;28;20458;-59
2021/06/14 06:15:17;;;;;;;8.97;6.30;;;19.00;97.50;;;;;;5099828;28;20516;-59
2021/06/14 06:17:44;;;;;;;7.97;7.03;;;19.80;96.60;;;;;;5105335;28;20993;-59
2021/06/14 06:20:13;;;;;;;7.87;7.13;;;20.60;94.60;;;;;;5106489;28;20532;-62
2021/06/14 06:22:41;;;;;;;7.83;7.23;;;21.10;92.90;;;;;;5104852;28;20447;-61
2021/06/14 06:25:12;;;;;;;8.20;7.50;;;21.40;92.60;;;;;;5108030;28;20475;-60
2021/06/14 06:27:39;;;;;;;12.60;8.00;;;22.20;90.80;;;;;;5102817;28;20460;-59
2021/06/14 06:30:07;;;;;;;7.40;6.90;;;23.70;86.40;;;;;;5117892;28;20416;-60
2021/06/14 06:32:35;;;;;;;10.10;9.20;;;23.70;84.40;;;;;;5106422;28;20414;-60
2021/06/14 06:35:03;;;;;;;8.27;7.63;;;23.20;81.70;;;;;;5114024;28;20742;-60
2021/06/14 06:37:31;;;;;;;9.97;9.10;;;22.80;84.00;;;;;;5113225;28;20414;-61
2021/06/14 06:39:58;;;;;;;11.90;11.00;;;22.80;83.80;;;;;;5109346;28;20438;-59
2021/06/14 06:42:25;;;;;;;9.70;8.80;;;22.60;82.00;;;;;;5114429;28;20419;-61
2021/06/14 06:44:53;;;;;;;9.37;8.57;;;23.40;82.50;;;;;;5104200;28;20419;-60
2021/06/14 06:47:20;;;;;;;9.10;8.40;;;24.40;78.30;;;;;;5111416;28;20442;-60
2021/06/14 06:49:47;;;;;;;8.10;7.50;;;24.10;75.80;;;;;;5101920;28;20453;-60
2021/06/14 06:52:14;;;;;;;16.50;10.40;;;25.00;74.60;;;;;;5118019;28;20453;-60
2021/06/14 06:54:41;;;;;;;9.20;8.50;;;26.70;68.30;;;;;;5117125;28;20484;-61
2021/06/14 06:57:08;;;;;;;12.10;10.90;;;28.10;60.00;;;;;;5111533;28;20491;-60
2021/06/14 06:59:36;;;;;;;10.23;9.53;;;28.40;57.30;;;;;;5118123;28;20472;-60
2021/06/14 07:02:03;;;;;;;10.80;9.90;;;29.40;54.20;;;;;;5117692;28;20446;-60
2021/06/14 07:04:31;;;;;;;10.87;10.17;;;30.30;51.50;;;;;;5115370;28;20456;-60
2021/06/14 07:06:58;;;;;;;11.33;10.43;;;31.40;49.70;;;;;;5117112;28;20671;-60
2021/06/14 07:09:25;;;;;;;12.37;11.57;;;33.50;43.60;;;;;;5118074;28;20677;-61
2021/06/14 07:11:52;;;;;;;11.03;10.33;;;33.30;41.20;;;;;;5104329;28;20443;-62
2021/06/14 07:14:19;;;;;;;11.20;10.60;;;33.10;41.10;;;;;;5105881;28;20483;-60
2021/06/14 07:16:46;;;;;;;11.47;10.67;;;32.90;40.70;;;;;;5111356;28;20480;-59
2021/06/14 07:19:13;;;;;;;11.00;10.30;;;31.80;42.50;;;;;;5117748;28;20639;-60
2021/06/14 07:21:40;;;;;;;11.60;11.00;;;31.40;41.60;;;;;;5104823;28;20440;-60
2021/06/14 07:24:08;;;;;;;11.07;10.17;;;29.10;44.90;;;;;;5106666;28;20442;-60
2021/06/14 07:26:36;;;;;;;11.17;10.17;;;28.50;46.50;;;;;;5113104;28;20543;-62
2021/06/14 07:29:04;;;;;;;11.40;10.50;;;30.30;44.10;;;;;;5112561;28;20457;-60
2021/06/14 07:31:32;;;;;;;11.60;10.73;;;30.20;42.70;;;;;;5115030;28;20447;-60
2021/06/14 07:34:02;;;;;;;12.00;11.20;;;30.60;41.20;;;;;;5116974;28;20479;-61
2021/06/14 07:36:30;;;;;;;10.97;10.30;;;32.00;39.70;;;;;;5115196;28;20541;-62
2021/06/14 07:38:57;;;;;;;12.00;11.00;;;31.20;40.30;;;;;;5117722;28;20546;-60
2021/06/14 07:41:25;;;;;;;12.63;11.63;;;30.70;42.50;;;;;;5110826;28;20461;-59
2021/06/14 07:43:52;;;;;;;11.90;11.27;;;33.90;39.00;;;;;;5106335;28;20453;-60
2021/06/14 07:46:20;;;;;;;13.20;12.33;;;35.30;37.60;;;;;;5117634;28;20442;-60
2021/06/14 07:48:47;;;;;;;12.23;11.33;;;34.50;37.00;;;;;;5110716;28;20443;-60
2021/06/14 07:51:14;;;;;;;12.80;11.90;;;34.40;35.20;;;;;;5098634;28;20481;-61
2021/06/14 07:53:42;;;;;;;13.37;12.10;;;33.80;36.10;;;;;;5101890;28;20711;-60
2021/06/14 07:56:10;;;;;;;11.10;10.20;;;33.80;36.00;;;;;;5117662;28;20444;-61
2021/06/14 07:58:37;;;;;;;11.03;10.43;;;33.30;36.70;;;;;;5112485;28;20438;-61
2021/06/14 08:01:04;;;;;;;11.20;10.60;;;35.30;35.20;;;;;;5108387;28;20460;-61
2021/06/14 08:03:31;;;;;;;11.97;11.27;;;35.60;33.90;;;;;;5103708;28;20437;-61
2021/06/14 08:05:59;;;;;;;12.10;11.20;;;37.90;32.10;;;;;;5115717;28;20442;-60
2021/06/14 08:08:26;;;;;;;11.97;11.17;;;37.60;32.80;;;;;;5115772;28;20450;-60
2021/06/14 08:10:54;;;;;;;11.03;10.33;;;35.50;32.80;;;;;;5098205;28;20483;-61
2021/06/14 08:13:21;;;;;;;10.50;9.90;;;32.20;36.50;;;;;;5111238;28;20561;-60
2021/06/14 08:15:50;;;;;;;10.67;10.17;;;31.90;37.40;;;;;;5116372;28;20582;-61
2021/06/14 08:18:30;;;;;;;12.03;11.13;;;33.20;36.60;;;;;;5105009;28;20448;-61
2021/06/14 08:26:26;;;;;;;13.13;12.17;;;36.00;33.70;;;;;;5108380;28;20808;-59
2021/06/14 08:28:56;;;;;;;11.73;11.13;;;33.50;35.40;;;;;;5113052;28;20447;-60
2021/06/14 08:31:25;;;;;;;11.30;10.60;;;33.20;35.90;;;;;;5112572;28;20433;-59
2021/06/14 08:33:52;;;;;;;11.77;10.70;;;33.80;35.10;;;;;;5116014;28;20434;-60
2021/06/14 08:36:20;;;;;;;12.90;11.80;;;35.00;34.40;;;;;;5114747;28;20442;-61
2021/06/14 08:38:48;;;;;;;11.13;10.43;;;35.80;33.30;;;;;;5115068;28;20641;-59
2021/06/14 08:41:20;;;;;;;10.80;10.20;;;35.20;33.20;;;;;;5107773;28;20772;-60
2021/06/14 08:43:50;;;;;;;11.70;11.00;;;31.60;37.30;;;;;;5107197;28;20495;-60
2021/06/14 08:46:18;;;;;;;12.43;11.40;;;31.40;38.00;;;;;;5110931;28;20516;-60
2021/06/14 08:48:45;;;;;;;13.20;12.20;;;32.60;35.70;;;;;;5106893;28;20499;-60
2021/06/14 08:51:13;;;;;;;11.03;10.20;;;34.50;34.70;;;;;;5117258;28;20466;-59
2021/06/14 08:53:40;;;;;;;11.30;10.70;;;34.20;34.10;;;;;;5115500;28;20432;-59
2021/06/14 08:56:08;;;;;;;12.37;11.27;;;33.90;34.70;;;;;;5116945;28;20469;-61
2021/06/14 08:58:35;;;;;;;12.47;11.57;;;35.20;33.90;;;;;;5107724;28;20758;-60
2021/06/14 09:01:04;;;;;;;12.20;11.00;;;37.70;31.50;;;;;;5102906;28;20446;-59
2021/06/14 09:03:31;;;;;;;12.20;11.50;;;36.20;31.70;;;;;;5111901;28;20842;-59
2021/06/14 09:05:59;;;;;;;11.90;11.10;;;35.00;34.30;;;;;;5107148;28;20585;-59
2021/06/14 09:08:26;;;;;;;11.03;10.43;;;35.60;33.20;;;;;;5115540;28;20895;-60
2021/06/14 09:10:53;;;;;;;11.93;11.03;;;35.30;32.60;;;;;;5114948;28;20430;-60
2021/06/14 09:13:26;;;;;;;11.13;10.40;;;34.70;33.30;;;;;;5103319;28;20449;-60
2021/06/14 09:16:04;;;;;;;10.83;10.13;;;33.40;36.00;;;;;;5097839;28;20494;-59
2021/06/14 09:18:31;;;;;;;10.87;10.00;;;31.90;38.50;;;;;;5097526;28;20756;-61
2021/06/14 09:20:59;;;;;;;11.03;10.33;;;30.70;41.60;;;;;;5103473;28;20568;-61
2021/06/14 09:23:39;;;;;;;12.23;11.23;;;32.90;36.50;;;;;;5116662;28;20446;-59
2021/06/14 09:26:07;;;;;;;11.23;10.63;;;35.80;33.50;;;;;;5097327;28;20739;-59
2021/06/14 09:28:34;;;;;;;11.10;10.60;;;37.70;31.00;;;;;;5097750;28;20489;-59
2021/06/14 09:31:14;;;;;;;11.50;10.70;;;37.40;31.30;;;;;;5111047;28;20474;-60
2021/06/14 09:33:44;;;;;;;11.50;10.80;;;37.80;31.00;;;;;;5110580;28;20445;-60
2021/06/14 09:36:12;;;;;;;10.73;10.13;;;36.30;33.20;;;;;;5120755;28;20552;-60
2021/06/14 09:38:39;;;;;;;11.93;11.00;;;34.40;35.00;;;;;;5112337;28;20705;-60
2021/06/14 09:41:18;;;;;;;11.23;10.43;;;32.60;37.10;;;;;;5115382;28;20442;-60
2021/06/14 09:43:47;;;;;;;11.33;10.47;;;29.90;41.10;;;;;;5106149;28;20446;-60
2021/06/14 09:46:28;;;;;;;10.20;9.50;;;27.30;44.40;;;;;;5114499;28;20424;-60
2021/06/14 09:49:04;;;;;;;10.67;9.80;;;26.40;47.90;;;;;;5119304;28;20406;-60
2021/06/14 09:51:34;;;;;;;10.30;9.70;;;25.60;47.10;;;;;;5118215;28;20434;-62
2021/06/14 09:54:02;;;;;;;10.50;9.80;;;25.30;48.40;;;;;;5107719;28;20442;-60
2021/06/14 09:56:35;;;;;;;11.03;10.03;;;25.00;49.30;;;;;;5118440;28;20671;-61
2021/06/14 09:59:07;;;;;;;10.27;9.33;;;24.70;49.40;;;;;;5112854;28;20438;-60
2021/06/14 10:01:37;;;;;;;9.30;8.70;;;23.70;50.30;;;;;;5113207;28;20473;-59
2021/06/14 10:04:11;;;;;;;11.10;10.07;;;22.60;52.90;;;;;;5118402;28;20426;-61
2021/06/14 10:06:42;;;;;;;9.93;9.07;;;22.60;55.10;;;;;;5119310;28;20769;-60
2021/06/14 10:09:13;;;;;;;10.70;9.53;;;23.10;54.90;;;;;;5106869;28;20419;-60
2021/06/14 10:11:43;;;;;;;10.33;9.53;;;23.40;54.90;;;;;;5120077;28;20761;-60
2021/06/14 10:14:16;;;;;;;10.23;9.23;;;23.80;54.20;;;;;;5111104;27;20447;-60
2021/06/14 10:16:46;;;;;;;11.50;9.33;;;23.90;52.80;;;;;;5112254;28;20462;-60
2021/06/14 10:19:16;;;;;;;9.87;9.20;;;24.00;53.60;;;;;;5119208;28;20620;-60
2021/06/14 10:21:46;;;;;;;9.70;8.97;;;24.20;53.70;;;;;;5119336;28;20543;-60
2021/06/14 10:24:15;;;;;;;10.33;9.63;;;24.40;52.50;;;;;;5119003;28;20454;-60
2021/06/14 10:26:45;;;;;;;11.27;10.43;;;24.30;51.90;;;;;;5108261;28;20443;-60
2021/06/14 10:29:14;;;;;;;10.83;9.93;;;24.20;53.40;;;;;;5113976;28;20414;-61
2021/06/14 10:31:44;;;;;;;9.87;9.20;;;23.80;51.10;;;;;;5105765;28;20603;-59
2021/06/14 10:34:12;;;;;;;9.37;8.67;;;23.30;53.20;;;;;;5115856;28;20729;-61
2021/06/14 10:36:48;;;;;;;9.97;9.07;;;23.20;53.60;;;;;;5114659;28;20531;-60
2021/06/14 10:39:19;;;;;;;10.13;9.23;;;23.00;54.40;;;;;;5108927;28;20438;-60
2021/06/14 10:41:46;;;;;;;10.43;9.70;;;22.20;53.90;;;;;;5116800;28;20775;-60
2021/06/14 10:44:13;;;;;;;9.87;9.00;;;22.70;54.30;;;;;;5110828;27;20504;-60
2021/06/14 10:46:45;;;;;;;11.00;10.20;;;22.30;54.90;;;;;;5115830;28;20475;-60
2021/06/14 10:49:14;;;;;;;10.63;9.70;;;22.20;55.50;;;;;;5110480;28;20423;-60
2021/06/14 10:51:44;;;;;;;10.13;9.40;;;22.00;55.80;;;;;;5104244;28;20444;-61
2021/06/14 10:54:17;;;;;;;9.40;8.60;;;22.10;57.80;;;;;;5111253;27;20778;-59
2021/06/14 10:56:45;;;;;;;10.23;9.30;;;22.40;57.80;;;;;;5117213;27;20733;-60
2021/06/14 10:59:14;;;;;;;9.43;8.73;;;22.80;54.50;;;;;;5112499;28;20446;-60
2021/06/14 11:01:44;;;;;;;10.57;9.77;;;23.00;55.30;;;;;;5116536;28;20416;-60
2021/06/14 11:04:26;;;;;;;9.30;8.70;;;22.60;53.20;;;;;;5108294;28;20423;-60
2021/06/14 11:06:56;;;;;;;7.73;7.20;;;22.20;55.80;;;;;;5107615;27;20442;-61
2021/06/14 11:09:23;;;;;;;9.20;8.60;;;22.10;54.00;;;;;;5107150;28;20448;-60
2021/06/14 11:11:59;;;;;;;10.07;9.30;;;21.90;55.20;;;;;;5105159;28;20795;-60
2021/06/14 11:14:33;;;;;;;10.17;9.03;;;21.80;56.30;;;;;;5117777;28;20469;-60
2021/06/14 11:17:20;;;;;;;9.00;8.40;;;21.60;57.20;;;;;;5116308;28;20414;-60
2021/06/14 11:19:58;;;;;;;10.00;9.10;;;21.20;56.80;;;;;;5116737;28;20944;-60
2021/06/14 11:22:39;;;;;;;8.83;8.13;;;21.20;57.40;;;;;;5114535;28;20811;-61
2021/06/14 11:25:24;;;;;;;9.30;8.60;;;21.40;58.60;;;;;;5115874;28;20533;-59
2021/06/14 11:27:51;;;;;;;8.33;7.73;;;21.80;57.30;;;;;;5118040;28;20402;-62
2021/06/14 11:30:29;;;;;;;8.60;8.00;;;21.90;56.90;;;;;;5117321;28;20717;-61
2021/06/14 11:32:57;;;;;;;8.53;7.80;;;22.00;56.60;;;;;;5114608;28;20470;-59
2021/06/14 11:35:29;;;;;;;8.23;7.63;;;22.10;57.50;;;;;;5110608;28;20483;-61
2021/06/14 11:38:00;;;;;;;8.93;8.30;;;21.90;56.30;;;;;;5114258;28;20518;-58
2021/06/14 11:40:33;;;;;;;9.00;8.37;;;22.50;55.90;;;;;;5115582;28;20468;-60
2021/06/14 11:43:11;;;;;;;10.93;9.40;;;22.60;56.00;;;;;;5116753;28;20451;-60
2021/06/14 11:45:42;;;;;;;9.10;8.30;;;22.80;56.50;;;;;;5108934;28;20768;-59
2021/06/14 11:48:32;;;;;;;9.53;8.70;;;22.90;55.20;;;;;;5104530;28;20418;-60
2021/06/14 11:51:06;;;;;;;9.10;8.37;;;23.00;55.30;;;;;;5117699;27;20438;-58
2021/06/14 11:53:53;;;;;;;8.60;8.00;;;23.10;55.30;;;;;;5115523;28;20401;-59
2021/06/14 11:56:25;;;;;;;8.70;8.10;;;22.90;52.90;;;;;;5105765;28;20506;-60
2021/06/14 11:58:54;;;;;;;8.07;7.60;;;22.40;53.60;;;;;;5110800;28;20496;-60
2021/06/14 12:01:39;;;;;;;8.23;7.63;;;22.10;54.20;;;;;;5110272;28;20451;-60
2021/06/14 12:04:08;;;;;;;9.50;8.27;;;22.10;55.40;;;;;;5106087;28;20407;-60
2021/06/14 12:06:44;;;;;;;8.33;7.73;;;22.30;55.30;;;;;;5116867;28;20744;-60
2021/06/14 12:09:26;;;;;;;7.87;7.17;;;22.30;54.80;;;;;;5104981;28;20474;-60
2021/06/14 12:11:59;;;;;;;8.83;8.07;;;22.40;55.80;;;;;;5114057;28;20464;-60
2021/06/14 12:14:27;;;;;;;9.10;8.30;;;22.60;54.60;;;;;;5108460;28;20443;-59
2021/06/14 12:16:59;;;;;;;9.27;8.47;;;22.60;55.10;;;;;;5105007;28;20529;-60
2021/06/14 12:19:32;;;;;;;9.77;8.97;;;22.30;53.70;;;;;;5115863;28;20451;-59
2021/06/14 12:22:04;;;;;;;8.90;8.10;;;22.00;55.40;;;;;;5116637;28;20583;-60
2021/06/14 12:24:34;;;;;;;8.90;8.20;;;22.20;55.50;;;;;;5103104;28;20460;-60
2021/06/14 12:27:07;;;;;;;10.30;7.70;;;22.30;56.80;;;;;;5117205;28;20450;-60
2021/06/14 12:29:35;;;;;;;8.40;7.80;;;22.50;56.60;;;;;;5102537;28;20474;-62
2021/06/14 12:32:07;;;;;;;7.80;7.27;;;22.70;55.80;;;;;;5117061;28;20447;-60
2021/06/14 12:34:39;;;;;;;8.87;7.97;;;22.80;55.10;;;;;;5109423;28;20408;-60
2021/06/14 12:37:24;;;;;;;9.07;8.37;;;22.80;53.50;;;;;;5115871;28;20454;-59
2021/06/14 12:39:57;;;;;;;8.93;8.33;;;22.50;53.80;;;;;;5102759;28;20453;-60
2021/06/14 12:42:24;;;;;;;8.33;7.73;;;22.30;55.40;;;;;;5114298;28;20440;-60
2021/06/14 12:44:53;;;;;;;10.00;8.97;;;22.00;55.10;;;;;;5110720;28;20458;-59
2021/06/14 12:47:22;;;;;;;10.17;8.80;;;22.00;56.10;;;;;;5109223;28;20493;-60
2021/06/14 12:49:50;;;;;;;8.73;7.73;;;22.10;56.40;;;;;;5112521;28;20853;-60
2021/06/14 12:52:23;;;;;;;9.07;8.27;;;22.10;55.50;;;;;;5116053;28;20444;-59
2021/06/14 12:54:50;;;;;;;8.03;7.20;;;21.90;55.00;;;;;;5110487;28;20516;-60
2021/06/14 12:57:17;;;;;;;9.60;8.70;;;21.90;54.50;;;;;;5116508;28;20418;-59
2021/06/14 12:59:45;;;;;;;8.20;7.60;;;21.80;55.00;;;;;;5114920;28;20418;-60